createdAt,value
2023-03-30T00:02:05.252Z,5.94
2023-03-30T00:04:34.794Z,5.92
2023-03-30T00:07:02.126Z,5.97
2023-03-30T00:09:30.996Z,6.06
2023-03-30T00:12:03.473Z,6.09
2023-03-30T00:14:33.340Z,6.14
2023-03-30T00:17:00.431Z,6.21
2023-03-30T00:19:27.626Z,6.25
2023-03-30T00:21:55.057Z,6.22
2023-03-30T00:24:22.333Z,6.13
2023-03-30T00:26:49.924Z,6.04
2023-03-30T00:29:18.641Z,6.02
2023-03-30T00:31:45.796Z,6.09
2023-03-30T00:34:12.941Z,6.13
2023-03-30T00:36:42.966Z,6.16
2023-03-30T00:39:10.110Z,6.18
2023-03-30T00:41:37.432Z,6.22
2023-03-30T00:44:07.888Z,6.31
2023-03-30T00:46:35.171Z,6.32
2023-03-30T00:49:06.142Z,6.38
2023-03-30T00:51:37.897Z,6.35
2023-03-30T00:54:13.460Z,6.44
2023-03-30T00:56:41.336Z,6.49
2023-03-30T00:59:09.230Z,6.63
2023-03-30T01:01:39.551Z,6.61
2023-03-30T01:04:09.472Z,6.53
2023-03-30T01:06:40.341Z,6.45
2023-03-30T01:09:08.462Z,6.33
2023-03-30T01:11:35.704Z,6.23
2023-03-30T01:14:06.319Z,6.15
2023-03-30T01:16:55.868Z,6.17
2023-03-30T01:20:03.989Z,6.11
2023-03-30T01:22:43.269Z,6.14
2023-03-30T01:25:29.484Z,6.23
2023-03-30T01:28:21.495Z,6.34
2023-03-30T01:30:51.120Z,6.33
2023-03-30T01:33:44.016Z,6.33
2023-03-30T01:36:31.361Z,6.36
2023-03-30T01:39:22.618Z,6.43
2023-03-30T01:42:14.420Z,6.45
2023-03-30T01:44:58.937Z,6.42
2023-03-30T01:47:32.174Z,6.40
2023-03-30T01:50:09.686Z,6.44
2023-03-30T01:52:43.005Z,6.44
2023-03-30T01:55:25.959Z,6.40
2023-03-30T01:58:25.151Z,6.40
2023-03-30T02:00:54.081Z,6.34
2023-03-30T02:03:28.360Z,6.34
2023-03-30T02:06:38.859Z,6.33
2023-03-30T02:09:10.410Z,6.31
2023-03-30T02:11:41.679Z,6.28
2023-03-30T02:14:13.329Z,6.20
2023-03-30T02:16:49.084Z,6.14
2023-03-30T02:19:17.083Z,6.11
2023-03-30T02:21:44.927Z,6.06
2023-03-30T02:24:19.281Z,6.00
2023-03-30T02:26:51.748Z,5.98
2023-03-30T02:29:20.638Z,6.01
2023-03-30T02:31:50.936Z,6.10
2023-03-30T02:34:24.117Z,5.94
2023-03-30T02:37:09.995Z,5.86
2023-03-30T02:39:40.227Z,5.82
2023-03-30T02:42:27.745Z,5.80
2023-03-30T02:45:08.973Z,5.77
2023-03-30T02:48:07.062Z,5.79
2023-03-30T02:50:47.592Z,5.72
2023-03-30T02:54:13.060Z,5.71
2023-03-30T02:57:33.280Z,5.67
2023-03-30T03:00:30.061Z,5.69
2023-03-30T03:03:04.884Z,5.72
2023-03-30T03:05:34.064Z,5.76
2023-03-30T03:08:07.192Z,5.71
2023-03-30T03:10:36.962Z,5.69
2023-03-30T03:13:05.180Z,5.73
2023-03-30T03:15:32.802Z,5.73
2023-03-30T03:18:07.478Z,5.75
2023-03-30T03:20:34.670Z,5.75
2023-03-30T03:23:02.998Z,5.78
2023-03-30T03:25:37.054Z,5.78
2023-03-30T03:28:05.397Z,5.74
2023-03-30T03:30:45.894Z,5.78
2023-03-30T03:33:23.618Z,5.78
2023-03-30T03:36:04.158Z,5.78
2023-03-30T03:38:33.605Z,5.80
2023-03-30T03:41:01.213Z,5.82
2023-03-30T03:43:30.802Z,5.87
2023-03-30T03:45:58.544Z,5.92
2023-03-30T03:48:25.783Z,5.90
2023-03-30T03:50:56.120Z,5.93
2023-03-30T03:53:25.000Z,5.96
2023-03-30T03:55:55.796Z,5.97
2023-03-30T03:58:23.963Z,6.02
2023-03-30T04:00:51.528Z,5.98
2023-03-30T04:03:18.738Z,6.01
2023-03-30T04:05:46.168Z,5.91
2023-03-30T04:08:13.378Z,5.87
2023-03-30T04:10:41.715Z,5.76
2023-03-30T04:13:24.243Z,5.75
2023-03-30T04:16:07.886Z,5.81
2023-03-30T04:19:13.563Z,5.75
2023-03-30T04:21:55.521Z,5.73
2023-03-30T04:24:57.039Z,5.72
2023-03-30T04:27:50.453Z,5.67
2023-03-30T04:30:30.575Z,5.67
2023-03-30T04:33:21.255Z,5.64
2023-03-30T04:35:56.582Z,5.63
2023-03-30T04:38:42.936Z,5.67
2023-03-30T04:41:33.442Z,5.68
2023-03-30T04:44:12.164Z,5.69
2023-03-30T04:47:00.960Z,5.60
2023-03-30T04:49:50.794Z,5.60
2023-03-30T04:52:36.271Z,5.56
2023-03-30T04:55:27.787Z,5.63
2023-03-30T04:58:13.304Z,5.60
2023-03-30T05:01:04.070Z,5.52
2023-03-30T05:03:50.292Z,5.54
2023-03-30T05:06:29.705Z,5.57
2023-03-30T05:09:32.576Z,5.71
2023-03-30T05:12:26.008Z,5.75
2023-03-30T05:15:11.157Z,5.78
2023-03-30T05:18:13.672Z,5.84
2023-03-30T05:20:59.650Z,6.00
2023-03-30T05:23:53.121Z,6.04
2023-03-30T05:26:48.233Z,6.18
2023-03-30T05:29:28.358Z,6.17
2023-03-30T05:32:13.250Z,6.17
2023-03-30T05:34:49.160Z,6.10
2023-03-30T05:37:36.422Z,6.12
2023-03-30T05:40:30.769Z,6.17
2023-03-30T05:43:15.606Z,6.16
2023-03-30T05:46:02.625Z,6.16
2023-03-30T05:48:48.230Z,6.27
2023-03-30T05:51:24.959Z,6.37
2023-03-30T05:54:04.546Z,6.60
2023-03-30T05:57:10.131Z,6.67
2023-03-30T05:59:55.696Z,6.74
2023-03-30T06:02:52.050Z,6.75
2023-03-30T06:05:21.979Z,6.79
2023-03-30T06:07:49.765Z,6.80
2023-03-30T06:10:17.315Z,6.87
2023-03-30T06:12:49.108Z,6.83
2023-03-30T06:15:39.219Z,6.83
2023-03-30T06:18:09.716Z,6.94
2023-03-30T06:20:48.829Z,7.09
2023-03-30T06:23:16.673Z,7.36
2023-03-30T06:25:52.749Z,7.39
2023-03-30T06:28:24.101Z,7.46
2023-03-30T06:30:51.582Z,7.60
2023-03-30T06:33:21.803Z,7.67
2023-03-30T06:35:56.102Z,7.70
2023-03-30T06:38:24.418Z,7.74
2023-03-30T06:40:53.389Z,7.75
2023-03-30T06:43:25.430Z,7.84
2023-03-30T06:46:09.000Z,8.03
2023-03-30T06:48:36.842Z,8.14
2023-03-30T06:52:02.390Z,8.30
2023-03-30T06:54:32.444Z,8.33
2023-03-30T06:57:05.683Z,8.57
2023-03-30T06:59:34.527Z,8.84
2023-03-30T07:02:21.163Z,8.96
2023-03-30T07:05:06.612Z,8.99
2023-03-30T07:07:45.376Z,9.04
2023-03-30T07:10:12.955Z,9.17
2023-03-30T07:12:41.502Z,9.37
2023-03-30T07:15:10.033Z,9.46
2023-03-30T07:17:38.094Z,9.62
2023-03-30T07:20:08.346Z,9.83
2023-03-30T07:22:48.568Z,10.29
2023-03-30T07:25:16.561Z,10.69
2023-03-30T07:27:43.968Z,10.96
2023-03-30T07:30:21.371Z,11.45
2023-03-30T07:32:58.395Z,11.89
2023-03-30T07:35:27.181Z,12.17
2023-03-30T07:38:03.470Z,12.26
2023-03-30T07:40:35.191Z,12.30
2023-03-30T07:43:05.767Z,12.30
2023-03-30T07:45:33.961Z,12.44
2023-03-30T07:48:02.060Z,12.83
2023-03-30T07:50:29.515Z,12.98
2023-03-30T07:52:58.518Z,13.15
2023-03-30T07:55:25.807Z,13.34
2023-03-30T07:57:59.745Z,13.38
2023-03-30T08:00:27.002Z,13.68
2023-03-30T08:03:12.829Z,13.93
2023-03-30T08:05:40.024Z,13.53
2023-03-30T08:08:16.603Z,13.35
2023-03-30T08:10:45.023Z,13.05
2023-03-30T08:13:13.514Z,13.25
2023-03-30T08:15:41.435Z,13.52
2023-03-30T08:18:08.869Z,13.90
2023-03-30T08:20:37.883Z,14.64
2023-03-30T08:23:06.231Z,14.95
2023-03-30T08:25:34.326Z,15.07
2023-03-30T08:28:02.219Z,14.74
2023-03-30T08:30:29.437Z,14.72
2023-03-30T08:32:57.083Z,14.87
2023-03-30T08:35:24.448Z,15.01
2023-03-30T08:37:51.933Z,14.80
2023-03-30T08:40:19.960Z,14.72
2023-03-30T08:42:51.687Z,14.60
2023-03-30T08:45:19.066Z,14.31
2023-03-30T08:47:49.787Z,13.98
2023-03-30T08:50:19.172Z,13.75
2023-03-30T08:52:47.019Z,13.63
2023-03-30T08:55:24.215Z,13.68
2023-03-30T08:57:59.988Z,13.50
2023-03-30T09:00:37.543Z,13.41
2023-03-30T09:03:14.599Z,13.12
2023-03-30T09:06:08.542Z,12.93
2023-03-30T09:08:36.133Z,12.76
2023-03-30T09:11:09.962Z,12.57
2023-03-30T09:13:39.632Z,12.49
2023-03-30T09:16:09.479Z,12.46
2023-03-30T09:18:39.431Z,12.44
2023-03-30T09:21:10.315Z,12.27
2023-03-30T09:23:39.818Z,12.22
2023-03-30T09:26:26.214Z,12.23
2023-03-30T09:29:02.032Z,12.21
2023-03-30T09:31:59.996Z,11.97
2023-03-30T09:34:27.506Z,11.92
2023-03-30T09:37:31.749Z,11.80
2023-03-30T09:40:18.561Z,11.68
2023-03-30T09:43:06.840Z,11.53
2023-03-30T09:45:34.717Z,11.10
2023-03-30T09:48:09.255Z,11.13
2023-03-30T09:50:40.325Z,11.25
2023-03-30T09:53:20.050Z,11.32
2023-03-30T09:56:36.006Z,11.13
2023-03-30T09:59:35.583Z,11.20
2023-03-30T10:02:21.378Z,11.34
2023-03-30T10:04:52.500Z,11.54
2023-03-30T10:07:50.971Z,11.68
2023-03-30T10:10:41.155Z,11.87
2023-03-30T10:13:27.214Z,12.01
2023-03-30T10:15:54.794Z,11.85
2023-03-30T10:18:46.880Z,11.90
2023-03-30T10:21:14.993Z,11.84
2023-03-30T10:23:45.073Z,11.85
2023-03-30T10:26:24.184Z,11.72
2023-03-30T10:28:57.348Z,11.85
2023-03-30T10:31:28.137Z,11.81
2023-03-30T10:33:59.866Z,11.79
2023-03-30T10:36:33.774Z,11.87
2023-03-30T10:39:26.048Z,11.88
2023-03-30T10:42:01.362Z,11.72
2023-03-30T10:44:35.950Z,11.62
2023-03-30T10:47:16.204Z,11.52
2023-03-30T10:50:10.848Z,11.55
2023-03-30T10:52:58.407Z,11.60
2023-03-30T10:55:51.613Z,11.66
2023-03-30T10:58:54.130Z,11.92
2023-03-30T11:01:42.778Z,12.07
2023-03-30T11:04:23.764Z,12.12
2023-03-30T11:06:54.553Z,12.24
2023-03-30T11:09:30.333Z,12.51
2023-03-30T11:12:07.692Z,12.52
2023-03-30T11:14:47.018Z,12.32
2023-03-30T11:17:34.205Z,12.33
2023-03-30T11:20:19.083Z,12.43
2023-03-30T11:22:53.856Z,12.41
2023-03-30T11:25:53.315Z,12.44
2023-03-30T11:28:39.342Z,12.43
2023-03-30T11:31:22.794Z,12.46
2023-03-30T11:34:04.706Z,12.54
2023-03-30T11:36:41.306Z,12.57
2023-03-30T11:39:31.211Z,12.64
2023-03-30T11:42:12.041Z,12.91
2023-03-30T11:44:39.142Z,13.13
2023-03-30T11:47:26.815Z,13.30
2023-03-30T11:50:05.894Z,13.80
2023-03-30T11:52:56.594Z,14.02
2023-03-30T11:55:57.982Z,14.17
2023-03-30T11:58:38.684Z,14.13
2023-03-30T12:01:43.801Z,14.31
2023-03-30T12:04:15.940Z,15.04
2023-03-30T12:06:58.203Z,15.42
2023-03-30T12:09:35.507Z,15.46
2023-03-30T12:12:15.546Z,15.07
2023-03-30T12:14:47.910Z,14.46
2023-03-30T12:17:30.341Z,14.14
2023-03-30T12:20:36.484Z,14.02
2023-03-30T12:23:22.495Z,14.36
2023-03-30T12:26:04.311Z,14.62
2023-03-30T12:29:11.280Z,14.66
2023-03-30T12:31:48.240Z,14.91
2023-03-30T12:34:16.208Z,15.28
2023-03-30T12:36:49.158Z,15.64
2023-03-30T12:39:26.150Z,15.56
2023-03-30T12:42:05.518Z,15.64
2023-03-30T12:44:57.064Z,15.62
2023-03-30T12:48:06.672Z,15.70
2023-03-30T12:50:37.616Z,15.92
2023-03-30T12:53:37.027Z,16.12
2023-03-30T12:56:11.352Z,15.81
2023-03-30T12:59:00.740Z,15.69
2023-03-30T13:01:56.122Z,15.78
2023-03-30T13:04:26.977Z,16.77
2023-03-30T13:07:02.252Z,16.98
2023-03-30T13:09:54.223Z,16.88
2023-03-30T13:12:34.799Z,16.81
2023-03-30T13:15:17.271Z,17.32
2023-03-30T13:17:50.966Z,17.67
2023-03-30T13:20:30.112Z,17.86
2023-03-30T13:23:22.166Z,17.07
2023-03-30T13:26:01.008Z,16.41
2023-03-30T13:29:12.225Z,15.66
2023-03-30T13:32:12.079Z,15.34
2023-03-30T13:35:06.797Z,15.26
2023-03-30T13:37:34.843Z,15.28
2023-03-30T13:40:30.763Z,15.30
2023-03-30T13:43:36.105Z,15.32
2023-03-30T13:46:27.299Z,15.27
2023-03-30T13:49:06.317Z,15.55
2023-03-30T13:51:34.273Z,15.89
2023-03-30T13:54:07.280Z,15.72
2023-03-30T13:56:39.770Z,15.49
2023-03-30T13:59:23.953Z,15.55
2023-03-30T14:01:59.859Z,15.95
2023-03-30T14:04:37.393Z,16.58
2023-03-30T14:07:08.829Z,17.16
2023-03-30T14:09:36.253Z,17.14
2023-03-30T14:12:05.011Z,16.98
2023-03-30T14:14:49.374Z,16.76
2023-03-30T14:17:28.304Z,16.42
2023-03-30T14:20:07.210Z,16.47
2023-03-30T14:22:45.775Z,16.04
2023-03-30T14:25:28.829Z,15.93
2023-03-30T14:28:07.866Z,16.17
2023-03-30T14:30:39.517Z,16.70
2023-03-30T14:33:07.050Z,17.05
2023-03-30T14:35:40.551Z,16.99
2023-03-30T14:38:16.902Z,16.77
2023-03-30T14:40:48.008Z,16.84
2023-03-30T14:43:22.658Z,16.44
2023-03-30T14:45:53.545Z,15.96
2023-03-30T14:48:35.438Z,16.11
2023-03-30T14:51:17.480Z,16.42
2023-03-30T14:53:45.013Z,16.16
2023-03-30T14:56:17.504Z,16.47
2023-03-30T14:58:55.474Z,16.98
2023-03-30T15:01:33.375Z,17.09
2023-03-30T15:04:13.608Z,17.12
2023-03-30T15:06:41.603Z,16.99
2023-03-30T15:09:20.366Z,16.29
2023-03-30T15:12:03.719Z,15.54
2023-03-30T15:14:39.729Z,15.08
2023-03-30T15:17:20.005Z,14.74
2023-03-30T15:19:50.422Z,14.17
2023-03-30T15:22:37.715Z,13.32
2023-03-30T15:25:13.837Z,12.83
2023-03-30T15:27:44.076Z,13.03
2023-03-30T15:30:49.844Z,13.59
2023-03-30T15:33:22.298Z,13.80
2023-03-30T15:35:54.712Z,13.46
2023-03-30T15:38:34.558Z,12.95
2023-03-30T15:41:02.918Z,11.48
2023-03-30T15:43:41.312Z,10.64
2023-03-30T15:46:13.877Z,10.33
2023-03-30T15:48:47.852Z,10.14
2023-03-30T15:51:17.576Z,9.75
2023-03-30T15:53:53.175Z,9.40
2023-03-30T15:56:38.636Z,9.14
2023-03-30T15:59:13.413Z,8.99
2023-03-30T16:01:55.366Z,8.92
2023-03-30T16:04:24.878Z,8.89
2023-03-30T16:06:55.086Z,8.89
2023-03-30T16:09:23.331Z,8.89
2023-03-30T16:11:50.898Z,8.88
2023-03-30T16:14:21.857Z,8.88
2023-03-30T16:16:49.444Z,8.89
2023-03-30T16:19:26.805Z,9.01
2023-03-30T16:21:58.617Z,9.15
2023-03-30T16:24:28.756Z,9.37
2023-03-30T16:26:55.817Z,9.36
2023-03-30T16:29:24.475Z,9.45
2023-03-30T16:31:52.729Z,9.35
2023-03-30T16:34:21.817Z,9.48
2023-03-30T16:36:52.950Z,9.23
2023-03-30T16:39:25.772Z,8.95
2023-03-30T16:41:56.606Z,8.88
2023-03-30T16:44:25.011Z,8.86
2023-03-30T16:46:52.641Z,8.86
2023-03-30T16:49:22.758Z,8.86
2023-03-30T16:51:51.359Z,8.95
2023-03-30T16:54:32.558Z,8.98
2023-03-30T16:57:02.879Z,9.18
2023-03-30T16:59:33.644Z,9.28
2023-03-30T17:02:06.217Z,9.44
2023-03-30T17:04:33.406Z,9.58
2023-03-30T17:07:00.774Z,9.43
2023-03-30T17:09:31.191Z,9.49
2023-03-30T17:11:58.514Z,9.42
2023-03-30T17:14:25.870Z,9.39
2023-03-30T17:16:53.506Z,9.36
2023-03-30T17:19:20.918Z,9.34
2023-03-30T17:21:48.662Z,9.31
2023-03-30T17:24:17.026Z,9.36
2023-03-30T17:26:44.582Z,9.35
2023-03-30T17:29:12.549Z,9.31
2023-03-30T17:31:45.677Z,9.31
2023-03-30T17:34:13.892Z,9.27
2023-03-30T17:36:42.201Z,9.23
2023-03-30T17:39:13.394Z,9.25
2023-03-30T17:41:41.402Z,9.19
2023-03-30T17:44:08.781Z,9.09
2023-03-30T17:46:36.519Z,9.14
2023-03-30T17:49:03.934Z,9.13
2023-03-30T17:51:31.348Z,9.15
2023-03-30T17:53:58.864Z,9.17
2023-03-30T17:56:26.816Z,9.15
2023-03-30T17:58:54.080Z,9.08
2023-03-30T18:01:21.506Z,8.99
2023-03-30T18:03:49.073Z,9.03
2023-03-30T18:06:19.095Z,8.97
2023-03-30T18:08:46.584Z,8.97
2023-03-30T18:11:14.087Z,9.00
2023-03-30T18:13:41.910Z,8.94
2023-03-30T18:16:10.840Z,8.96
2023-03-30T18:18:38.601Z,8.87
2023-03-30T18:21:06.955Z,8.92
2023-03-30T18:23:34.940Z,8.94
2023-03-30T18:26:08.339Z,8.87
2023-03-30T18:28:40.606Z,8.82
2023-03-30T18:31:08.946Z,8.79
2023-03-30T18:33:36.534Z,8.85
2023-03-30T18:36:08.216Z,8.78
2023-03-30T18:38:36.023Z,8.75
2023-03-30T18:41:03.984Z,8.68
2023-03-30T18:43:31.295Z,8.62
2023-03-30T18:46:01.825Z,8.59
2023-03-30T18:48:30.064Z,8.60
2023-03-30T18:50:58.120Z,8.58
2023-03-30T18:53:27.715Z,8.50
2023-03-30T18:55:58.657Z,8.52
2023-03-30T18:58:28.675Z,8.51
2023-03-30T19:00:57.323Z,8.48
2023-03-30T19:03:27.556Z,8.50
2023-03-30T19:05:55.555Z,8.50
2023-03-30T19:08:23.768Z,8.44
2023-03-30T19:10:53.438Z,8.34
2023-03-30T19:13:22.300Z,8.46
2023-03-30T19:15:51.478Z,8.57
2023-03-30T19:18:19.500Z,8.50
2023-03-30T19:20:49.498Z,8.42
2023-03-30T19:23:17.435Z,8.38
2023-03-30T19:25:45.376Z,8.42
2023-03-30T19:28:14.751Z,8.54
2023-03-30T19:30:42.221Z,8.77
2023-03-30T19:33:12.663Z,8.77
2023-03-30T19:35:44.776Z,8.83
2023-03-30T19:38:14.054Z,8.79
2023-03-30T19:40:41.964Z,8.89
2023-03-30T19:43:09.832Z,8.76
2023-03-30T19:45:37.241Z,8.76
2023-03-30T19:48:05.155Z,8.77
2023-03-30T19:50:32.626Z,8.74
2023-03-30T19:53:00.013Z,8.61
2023-03-30T19:55:27.763Z,8.51
2023-03-30T19:57:55.632Z,8.48
2023-03-30T20:00:23.466Z,8.41
2023-03-30T20:02:54.030Z,8.30
2023-03-30T20:05:25.096Z,8.22
2023-03-30T20:07:53.182Z,8.27
2023-03-30T20:10:23.804Z,8.36
2023-03-30T20:12:52.592Z,8.33
2023-03-30T20:15:22.395Z,8.34
2023-03-30T20:17:50.074Z,8.45
2023-03-30T20:20:25.347Z,8.43
2023-03-30T20:22:56.737Z,8.42
2023-03-30T20:25:24.943Z,8.49
2023-03-30T20:27:53.677Z,8.55
2023-03-30T20:30:21.812Z,8.58
2023-03-30T20:33:06.820Z,8.55
2023-03-30T20:35:37.335Z,8.33
2023-03-30T20:38:06.496Z,8.27
2023-03-30T20:40:34.107Z,8.37
2023-03-30T20:43:11.818Z,8.43
2023-03-30T20:45:48.657Z,8.37
2023-03-30T20:48:30.302Z,8.38
2023-03-30T20:50:57.682Z,8.42
2023-03-30T20:53:25.582Z,8.39
2023-03-30T20:55:52.986Z,8.28
2023-03-30T20:58:22.339Z,8.28
2023-03-30T21:00:53.521Z,8.34
2023-03-30T21:03:21.693Z,8.21
2023-03-30T21:05:59.467Z,8.23
2023-03-30T21:08:26.862Z,8.15
2023-03-30T21:10:55.250Z,8.08
2023-03-30T21:13:23.334Z,8.17
2023-03-30T21:15:59.164Z,8.09
2023-03-30T21:18:27.519Z,8.15
2023-03-30T21:20:55.874Z,8.05
2023-03-30T21:23:25.463Z,8.10
2023-03-30T21:26:06.716Z,8.21
2023-03-30T21:28:35.610Z,8.21
2023-03-30T21:31:07.885Z,8.25
2023-03-30T21:33:36.676Z,8.31
2023-03-30T21:36:05.087Z,8.31
2023-03-30T21:38:33.941Z,8.24
2023-03-30T21:41:19.295Z,8.16
2023-03-30T21:43:47.432Z,8.24
2023-03-30T21:46:15.969Z,8.31
2023-03-30T21:48:45.501Z,8.32
2023-03-30T21:51:16.684Z,8.40
2023-03-30T21:53:46.299Z,8.38
2023-03-30T21:56:14.414Z,8.38
2023-03-30T21:58:42.054Z,8.35
2023-03-30T22:01:12.430Z,8.30
2023-03-30T22:03:42.318Z,8.37
2023-03-30T22:06:11.856Z,8.48
2023-03-30T22:08:39.637Z,8.62
2023-03-30T22:11:13.662Z,8.62
2023-03-30T22:13:41.276Z,8.67
2023-03-30T22:16:13.014Z,8.70
2023-03-30T22:18:41.417Z,8.73
2023-03-30T22:21:12.739Z,8.76
2023-03-30T22:23:40.533Z,8.67
2023-03-30T22:26:08.429Z,8.75
2023-03-30T22:28:36.302Z,8.79
2023-03-30T22:31:07.066Z,8.90
2023-03-30T22:33:35.093Z,8.97
2023-03-30T22:36:04.020Z,8.99
2023-03-30T22:38:31.674Z,8.87
2023-03-30T22:41:06.467Z,8.79
2023-03-30T22:43:35.968Z,8.67
2023-03-30T22:46:05.752Z,8.72
2023-03-30T22:48:33.666Z,8.75
2023-03-30T22:51:03.442Z,8.74
2023-03-30T22:53:32.471Z,8.76
2023-03-30T22:56:00.723Z,8.71
2023-03-30T22:58:28.367Z,8.75
2023-03-30T23:01:03.774Z,8.75
2023-03-30T23:03:31.558Z,8.83
2023-03-30T23:06:01.777Z,8.80
2023-03-30T23:08:30.506Z,8.78
2023-03-30T23:11:04.323Z,8.75
2023-03-30T23:13:37.789Z,8.77
2023-03-30T23:16:10.905Z,8.74
2023-03-30T23:18:38.923Z,8.78
2023-03-30T23:21:07.617Z,8.74
2023-03-30T23:23:36.301Z,8.83
2023-03-30T23:26:09.174Z,8.80
2023-03-30T23:28:42.409Z,8.79
2023-03-30T23:31:16.593Z,8.89
2023-03-30T23:33:44.596Z,8.97
2023-03-30T23:36:17.366Z,8.96
2023-03-30T23:38:45.470Z,8.89
2023-03-30T23:41:13.784Z,8.89
2023-03-30T23:43:41.241Z,8.89
2023-03-30T23:46:09.908Z,8.88
2023-03-30T23:48:38.249Z,8.90
2023-03-30T23:51:06.278Z,8.98
2023-03-30T23:53:34.433Z,9.01
2023-03-30T23:56:06.625Z,9.00
2023-03-30T23:58:34.311Z,9.02
